• Join FlightAware (Why Join?)
  • Login
  • US Flag 
01:51PM EDT


 

Airport Tracker/Info


-or-


 

Live Flight TrackerFlight Track Log ✈ DAL1647 ✈ 12-Dec-2012 ✈ KATL - KLGA

Flight Track Log - Related Links

Times and Time Zones

All times are in EST time to prevent confusion due to time zone crossing. See the DAL1647 flight status page for this flight to view local times or setup timezone preferences in your user account.

Time Position Orientation Groundspeed Altitude Reporting Facility
EST Latitude Longitude Course Direction KTS MPH feet Rate Location/Type
07:47AM 33.6333 -84.3500 64° Northeast 212 244 3,600  Level Atlanta TRACON
07:48AM 33.6333 -84.2667 90° East 274 315 6,400 2,460 Climbing Atlanta TRACON
07:50AM 33.6544 -84.0439 83° East 347 399 11,300 2,520 Climbing Atlanta Center
07:51AM 33.7022 -83.9214 65° Northeast 381 438 14,300 2,580 Climbing Atlanta Center
07:52AM 33.7503 -83.7964 65° Northeast 401 461 16,500 1,920 Climbing Atlanta Center
07:53AM 33.8428 -83.5434 64° Northeast  Level FlightAware Approximate
07:53AM 33.8061 -83.6539 65° Northeast 441 507 18,200  Level Atlanta Center
07:54AM 33.8661 -83.5108 63° Northeast 462 532 20,400 1,800 Climbing Atlanta Center
07:55AM 33.9219 -83.3781 63° Northeast 476 548 21,900 1,260 Climbing Atlanta Center
07:56AM 33.9981 -83.2269 59° Northeast 502 578 23,000 600 Climbing Atlanta Center
07:57AM 34.0744 -83.0808 58° Northeast 519 597 23,100 900 Climbing Atlanta Center
07:58AM 34.1525 -82.9342 57° Northeast 519 597 24,800 1,440 Climbing Atlanta Center
07:59AM 34.2325 -82.7825 57° Northeast 530 610 26,000 600 Climbing Atlanta Center
08:00AM 34.3119 -82.6253 59° Northeast 541 623 26,000 60 Level Atlanta Center
08:01AM 34.3917 -82.4781 57° Northeast 541 623 26,200 1,140 Climbing Atlanta Center
08:02AM 34.4689 -82.3281 58° Northeast 529 609 28,300 1,380 Climbing Atlanta Center
08:03AM 34.5461 -82.1775 58° Northeast 524 603 29,000 300 Climbing Atlanta Center
08:04AM 34.6269 -82.0167 59° Northeast 536 617 29,000  Level Atlanta Center
08:05AM 34.7178 -81.8403 58° Northeast 558 642 29,000  Level Atlanta Center
08:06AM 34.8025 -81.6736 58° Northeast 563 648 29,000  Level Atlanta Center
08:07AM 34.8847 -81.5117 58° Northeast 568 654 29,000  Level Atlanta Center
08:08AM 34.9647 -81.3419 60° Northeast 568 654 29,000  Level Atlanta Center
08:09AM 35.0486 -81.1769 58° Northeast 573 659 29,000  Level Atlanta Center
08:10AM 35.1303 -81.0167 58° Northeast 561 646 29,000  Level Atlanta Center
08:11AM 35.2114 -80.8458 60° Northeast 571 657 29,000  Level Atlanta Center
08:12AM 35.2947 -80.6772 59° Northeast 571 657 29,000  Level Atlanta Center
08:13AM 35.3756 -80.5136 59° Northeast 571 657 29,000  Level Atlanta Center
08:14AM 35.4503 -80.3600 59° Northeast 571 657 29,000  Level Atlanta Center
08:15AM 35.5328 -80.1903 59° Northeast 571 657 29,000  Level Atlanta Center
08:18AM 35.7142 -79.8156 59° Northeast 575 662 29,000  Level Washington Center
08:19AM 35.7994 -79.6458 58° Northeast 581 669 29,000  Level Washington Center
08:20AM 35.8903 -79.4867 55° Northeast 574 661 29,000  Level Washington Center
08:21AM 35.9850 -79.3347 52° Northeast 562 647 29,000  Level Washington Center
08:22AM 36.0856 -79.1800 51° Northeast 562 647 29,000  Level Washington Center
08:23AM 36.1819 -79.0222 53° Northeast 562 647 29,000  Level Washington Center
08:24AM 36.2803 -78.8669 52° Northeast 567 652 29,000  Level Washington Center
08:25AM 36.3764 -78.7108 53° Northeast 567 652 29,000  Level Washington Center
08:26AM 36.4722 -78.5519 53° Northeast 567 652 29,000  Level Washington Center
08:27AM 36.5697 -78.3953 52° Northeast 567 652 29,000  Level Washington Center
08:28AM 36.6672 -78.2383 52° Northeast 567 652 29,000  Level Washington Center
08:29AM 36.7497 -78.0933 55° Northeast 567 652 29,000  Level Washington Center
08:30AM 36.8447 -77.9356 53° Northeast 567 652 29,000  Level Washington Center
08:31AM 36.9417 -77.7722 53° Northeast 567 652 29,000  Level Washington Center
08:32AM 37.0361 -77.6136 53° Northeast 567 652 29,000  Level Washington Center
08:33AM 37.1306 -77.4544 53° Northeast 567 652 29,000  Level Washington Center
08:34AM 37.2247 -77.2925 54° Northeast 567 652 29,000  Level Washington Center
08:35AM 37.3333 -77.1250 51° Northeast 567 652 29,000  Level Washington Center
08:36AM 37.4492 -77.0281 34° Northeast 558 642 29,000  Level Washington Center
08:37AM 37.5986 -76.9156 31° Northeast 551 634 29,000  Level Washington Center
08:38AM 37.7331 -76.8156 30° Northeast 551 634 29,000  Level Washington Center
08:39AM 37.8675 -76.7175 30° Northeast 551 634 29,000  Level Washington Center
08:40AM 37.9978 -76.6167 31° Northeast 556 640 29,000  Level Washington Center
08:41AM 38.1342 -76.5131 31° Northeast 562 647 29,000  Level Washington Center
08:42AM 38.2664 -76.4142 30° Northeast 562 647 29,000  Level Washington Center
08:43AM 38.3964 -76.3017 34° Northeast 556 640 29,000  Level Washington Center
08:44AM 38.5242 -76.1808 36° Northeast 562 647 29,000  Level Washington Center
08:45AM 38.6392 -76.0753 36° Northeast 567 652 29,000 -120 Level Washington Center
08:46AM 38.7689 -75.9592 35° Northeast 567 652 28,800 -780 Descending Washington Center
08:47AM 38.8942 -75.8397 37° Northeast 567 652 27,500 -960 Descending Washington Center
08:48AM 39.0175 -75.7225 36° Northeast 560 644 27,000 -300 Descending Washington Center
08:49AM 39.1406 -75.6075 36° Northeast 555 639 26,900 -900 Descending Washington Center
08:50AM 39.2614 -75.4925 36° Northeast 549 632 25,200 -2,040 Descending Washington Center
08:51AM 39.3819 -75.3847 35° Northeast 544 626 22,900 -2,280 Descending Washington Center
08:52AM 39.4964 -75.2850 34° Northeast 523 602 20,800 -2,280 Descending Washington Center
08:53AM 39.6044 -75.1847 36° Northeast 497 572 18,400 -2,100 Descending Washington Center
08:54AM 39.7167 -75.0789 36° Northeast 465 535 16,600 -1,800 Descending Washington Center
08:55AM 39.8161 -74.9944 33° Northeast 442 509 14,800 -1,740 Descending Washington Center
08:56AM 39.9117 -74.9072 35° Northeast 425 489 13,200 -1,380 Descending Washington Center
08:57AM 40.0000 -74.8000 43° Northeast 413 475 12,100 -1,380 Descending New York TRACON
08:57AM 40.0667 -74.7000 49° Northeast 395 455 10,600 -1,140 Descending New York TRACON
08:58AM 40.1333 -74.6000 49° Northeast 362 417 10,000 -300 Descending New York TRACON
08:59AM 40.1833 -74.5167 52° Northeast 310 357 10,000 -600 Level New York TRACON
09:01AM 40.2856 -74.3787 57° Northeast  Level FlightAware Approximate
09:02AM 40.3500 -74.3667 30° Northeast 298 343 7,800  Level New York TRACON
09:04AM 40.4610 -74.2391 30° Northeast  Level Estimated
09:04AM 40.4333 -74.2167 30° Northeast 277 319 7,000  Level New York TRACON
09:05AM 40.5000 -74.1500 37° Northeast 274 315 6,200 -960 Descending New York TRACON
09:06AM 40.5500 -74.1000 37° Northeast 263 303 5,100 -1,260 Descending New York TRACON
09:07AM 40.6000 -74.0500 37° Northeast 250 288 3,900 -1,140 Descending New York TRACON
09:08AM 40.7667 -73.8667 30° Northeast  Level FlightAware Approximate
09:08AM 40.6500 -74.0000 37° Northeast 225 259 3,000  Level New York TRACON
09:09AM 40.7000 -73.9500 37° Northeast 183 211 2,500 -660 Descending New York TRACON
09:11AM 40.7333 -73.8500 66° East 140 161 1,100 -780 Descending New York TRACON
09:12AM 40.7667 -73.8333 21° North 129 148 400 -720 Descending New York TRACON